sensor_id;sensor_type;location;lat;lon;timestamp;pressure;altitude;pressure_sealevel;temperature;humidity
47530;BME280;33272;51.922;7.730;2023-04-03T00:00:09;143379.19;;;3.53;100.00
47530;BME280;33272;51.922;7.730;2023-04-03T00:02:37;143372.91;;;3.50;100.00
47530;BME280;33272;51.922;7.730;2023-04-03T00:05:07;143367.88;;;3.48;100.00
47530;BME280;33272;51.922;7.730;2023-04-03T00:07:34;143348.94;;;3.40;100.00
47530;BME280;33272;51.922;7.730;2023-04-03T00:10:01;143332.56;;;3.34;100.00
47530;BME280;33272;51.922;7.730;2023-04-03T00:12:28;143311.19;;;3.25;100.00
47530;BME280;33272;51.922;7.730;2023-04-03T00:14:55;143292.28;;;3.17;100.00
47530;BME280;33272;51.922;7.730;2023-04-03T00:17:23;143275.91;;;3.11;100.00
47530;BME280;33272;51.922;7.730;2023-04-03T00:19:52;143258.31;;;3.04;100.00
47530;BME280;33272;51.922;7.730;2023-04-03T00:22:19;143252.00;;;3.01;100.00
47530;BME280;33272;51.922;7.730;2023-04-03T00:24:46;143250.75;;;3.00;100.00
47530;BME280;33272;51.922;7.730;2023-04-03T00:27:13;143241.94;;;2.97;100.00
47530;BME280;33272;51.922;7.730;2023-04-03T00:29:41;143239.41;;;2.96;100.00
47530;BME280;33272;51.922;7.730;2023-04-03T00:32:08;143230.59;;;2.92;100.00
47530;BME280;33272;51.922;7.730;2023-04-03T00:34:35;143220.53;;;2.88;100.00
47530;BME280;33272;51.922;7.730;2023-04-03T00:37:04;143216.72;;;2.87;100.00
47530;BME280;33272;51.922;7.730;2023-04-03T00:39:30;143214.22;;;2.86;100.00
47530;BME280;33272;51.922;7.730;2023-04-03T00:41:58;143207.94;;;2.83;100.00
47530;BME280;33272;51.922;7.730;2023-04-03T00:47:44;143191.56;;;2.76;100.00
47530;BME280;33272;51.922;7.730;2023-04-03T00:50:12;143189.06;;;2.75;100.00
47530;BME280;33272;51.922;7.730;2023-04-03T00:52:40;143187.81;;;2.75;100.00
47530;BME280;33272;51.922;7.730;2023-04-03T00:55:08;143187.81;;;2.75;100.00
47530;BME280;33272;51.922;7.730;2023-04-03T00:57:36;143185.25;;;2.74;100.00
47530;BME280;33272;51.922;7.730;2023-04-03T01:00:08;143181.50;;;2.72;100.00
47530;BME280;33272;51.922;7.730;2023-04-03T01:02:35;143177.72;;;2.71;100.00
47530;BME280;33272;51.922;7.730;2023-04-03T01:05:04;143176.47;;;2.70;100.00
47530;BME280;33272;51.922;7.730;2023-04-03T01:07:31;143173.97;;;2.69;100.00
47530;BME280;33272;51.922;7.730;2023-04-03T01:10:06;143165.16;;;2.66;100.00
47530;BME280;33272;51.922;7.730;2023-04-03T01:12:36;143157.59;;;2.63;100.00
47530;BME280;33272;51.922;7.730;2023-04-03T01:15:08;143150.03;;;2.60;100.00
47530;BME280;33272;51.922;7.730;2023-04-03T01:17:38;143136.19;;;2.54;100.00
47530;BME280;33272;51.922;7.730;2023-04-03T01:23:35;143109.78;;;2.43;100.00
47530;BME280;33272;51.922;7.730;2023-04-03T01:26:06;143099.69;;;2.39;100.00
47530;BME280;33272;51.922;7.730;2023-04-03T01:28:34;143090.88;;;2.36;100.00
47530;BME280;33272;51.922;7.730;2023-04-03T01:31:11;143087.13;;;2.34;100.00
47530;BME280;33272;51.922;7.730;2023-04-03T01:33:42;143079.56;;;2.31;100.00
47530;BME280;33272;51.922;7.730;2023-04-03T01:36:14;143078.31;;;2.30;100.00
47530;BME280;33272;51.922;7.730;2023-04-03T01:38:42;143066.97;;;2.26;100.00
47530;BME280;33272;51.922;7.730;2023-04-03T01:41:09;143053.13;;;2.20;100.00
47530;BME280;33272;51.922;7.730;2023-04-03T01:43:36;143040.56;;;2.15;100.00
47530;BME280;33272;51.922;7.730;2023-04-03T01:46:03;143024.22;;;2.08;100.00
47530;BME280;33272;51.922;7.730;2023-04-03T01:48:30;143009.13;;;2.02;100.00
47530;BME280;33272;51.922;7.730;2023-04-03T01:50:58;142996.53;;;1.97;100.00
47530;BME280;33272;51.922;7.730;2023-04-03T01:53:25;142977.69;;;1.90;100.00
47530;BME280;33272;51.922;7.730;2023-04-03T01:55:52;142962.59;;;1.83;100.00
47530;BME280;33272;51.922;7.730;2023-04-03T01:58:20;142955.03;;;1.80;100.00
47530;BME280;33272;51.922;7.730;2023-04-03T02:00:47;142941.19;;;1.75;100.00
47530;BME280;33272;51.922;7.730;2023-04-03T02:03:14;142931.16;;;1.71;100.00
47530;BME280;33272;51.922;7.730;2023-04-03T02:05:41;142921.06;;;1.67;100.00
47530;BME280;33272;51.922;7.730;2023-04-03T02:08:10;142909.75;;;1.62;100.00
47530;BME280;33272;51.922;7.730;2023-04-03T02:10:37;142899.72;;;1.58;100.00
47530;BME280;33272;51.922;7.730;2023-04-03T02:13:04;142885.88;;;1.52;100.00
47530;BME280;33272;51.922;7.730;2023-04-03T02:15:31;142873.28;;;1.47;100.00
47530;BME280;33272;51.922;7.730;2023-04-03T02:17:58;142860.75;;;1.42;100.00
47530;BME280;33272;51.922;7.730;2023-04-03T02:20:25;142856.94;;;1.41;100.00
47530;BME280;33272;51.922;7.730;2023-04-03T02:22:52;142851.91;;;1.38;100.00
47530;BME280;33272;51.922;7.730;2023-04-03T02:25:21;142840.59;;;1.34;100.00
47530;BME280;33272;51.922;7.730;2023-04-03T02:27:47;142835.56;;;1.32;100.00
47530;BME280;33272;51.922;7.730;2023-04-03T02:30:15;142826.78;;;1.28;100.00
47530;BME280;33272;51.922;7.730;2023-04-03T02:32:43;142817.97;;;1.25;100.00
47530;BME280;33272;51.922;7.730;2023-04-03T02:35:11;142801.63;;;1.18;100.00
47530;BME280;33272;51.922;7.730;2023-04-03T02:37:38;142787.81;;;1.12;100.00
47530;BME280;33272;51.922;7.730;2023-04-03T02:40:08;142775.28;;;1.07;100.00
47530;BME280;33272;51.922;7.730;2023-04-03T02:42:38;142765.19;;;1.03;100.00
47530;BME280;33272;51.922;7.730;2023-04-03T02:45:06;142751.34;;;0.98;100.00
47530;BME280;33272;51.922;7.730;2023-04-03T02:47:34;142741.31;;;0.93;100.00
47530;BME280;33272;51.922;7.730;2023-04-03T02:50:01;142735.00;;;0.91;100.00
47530;BME280;33272;51.922;7.730;2023-04-03T02:52:28;142733.75;;;0.90;100.00
47530;BME280;33272;51.922;7.730;2023-04-03T02:54:55;142727.47;;;0.88;100.00
47530;BME280;33272;51.922;7.730;2023-04-03T02:57:22;142724.97;;;0.87;100.00
47530;BME280;33272;51.922;7.730;2023-04-03T02:59:50;142717.44;;;0.84;100.00
47530;BME280;33272;51.922;7.730;2023-04-03T03:02:17;142713.69;;;0.82;100.00
47530;BME280;33272;51.922;7.730;2023-04-03T03:04:45;142703.59;;;0.78;100.00
47530;BME280;33272;51.922;7.730;2023-04-03T03:07:12;142689.81;;;0.73;100.00
47530;BME280;33272;51.922;7.730;2023-04-03T03:09:39;142680.97;;;0.69;100.00
47530;BME280;33272;51.922;7.730;2023-04-03T03:12:06;142672.19;;;0.65;100.00
47530;BME280;33272;51.922;7.730;2023-04-03T03:14:33;142670.94;;;0.65;100.00
47530;BME280;33272;51.922;7.730;2023-04-03T03:17:01;142665.91;;;0.63;100.00
47530;BME280;33272;51.922;7.730;2023-04-03T03:19:28;142662.16;;;0.61;100.00
47530;BME280;33272;51.922;7.730;2023-04-03T03:21:55;142653.38;;;0.58;100.00
47530;BME280;33272;51.922;7.730;2023-04-03T03:24:22;142635.78;;;0.51;100.00
47530;BME280;33272;51.922;7.730;2023-04-03T03:26:50;142623.22;;;0.45;100.00
47530;BME280;33272;51.922;7.730;2023-04-03T03:29:17;142606.91;;;0.39;100.00
47530;BME280;33272;51.922;7.730;2023-04-03T03:31:44;142600.59;;;0.36;100.00
47530;BME280;33272;51.922;7.730;2023-04-03T03:34:12;142600.59;;;0.36;100.00
47530;BME280;33272;51.922;7.730;2023-04-03T03:36:39;142590.56;;;0.32;100.00
47530;BME280;33272;51.922;7.730;2023-04-03T03:39:06;142584.28;;;0.30;100.00
47530;BME280;33272;51.922;7.730;2023-04-03T03:41:33;142575.50;;;0.26;100.00
47530;BME280;33272;51.922;7.730;2023-04-03T03:44:00;142566.72;;;0.22;100.00
47530;BME280;33272;51.922;7.730;2023-04-03T03:46:27;142559.19;;;0.19;100.00
47530;BME280;33272;51.922;7.730;2023-04-03T03:48:54;142554.13;;;0.17;100.00
47530;BME280;33272;51.922;7.730;2023-04-03T03:51:23;142552.88;;;0.17;100.00
47530;BME280;33272;51.922;7.730;2023-04-03T03:53:50;142547.84;;;0.15;100.00
47530;BME280;33272;51.922;7.730;2023-04-03T03:56:17;142546.59;;;0.14;100.00
47530;BME280;33272;51.922;7.730;2023-04-03T03:58:44;142545.34;;;0.14;100.00
47530;BME280;33272;51.922;7.730;2023-04-03T04:01:11;142537.81;;;0.11;100.00
47530;BME280;33272;51.922;7.730;2023-04-03T04:03:38;142524.00;;;0.05;100.00
47530;BME280;33272;51.922;7.730;2023-04-03T04:06:05;142513.97;;;0.01;100.00
47530;BME280;33272;51.922;7.730;2023-04-03T04:08:34;142508.94;;;-0.01;100.00
47530;BME280;33272;51.922;7.730;2023-04-03T04:11:01;142498.91;;;-0.05;100.00
47530;BME280;33272;51.922;7.730;2023-04-03T04:13:28;142490.13;;;-0.09;100.00
47530;BME280;33272;51.922;7.730;2023-04-03T04:15:55;142483.81;;;-0.11;100.00
47530;BME280;33272;51.922;7.730;2023-04-03T04:18:22;142476.28;;;-0.14;100.00
47530;BME280;33272;51.922;7.730;2023-04-03T04:20:50;142476.28;;;-0.14;100.00
47530;BME280;33272;51.922;7.730;2023-04-03T04:23:17;142475.03;;;-0.15;100.00
47530;BME280;33272;51.922;7.730;2023-04-03T04:25:47;142466.25;;;-0.18;100.00
47530;BME280;33272;51.922;7.730;2023-04-03T04:28:14;142465.03;;;-0.19;100.00
47530;BME280;33272;51.922;7.730;2023-04-03T04:30:42;142461.22;;;-0.20;100.00
47530;BME280;33272;51.922;7.730;2023-04-03T04:33:09;142465.03;;;-0.19;100.00
47530;BME280;33272;51.922;7.730;2023-04-03T04:35:37;142462.47;;;-0.20;100.00
47530;BME280;33272;51.922;7.730;2023-04-03T04:38:03;142465.03;;;-0.19;100.00
47530;BME280;33272;51.922;7.730;2023-04-03T04:40:31;142471.25;;;-0.16;100.00
47530;BME280;33272;51.922;7.730;2023-04-03T04:42:59;142475.03;;;-0.15;100.00
47530;BME280;33272;51.922;7.730;2023-04-03T04:45:26;142475.03;;;-0.15;100.00
47530;BME280;33272;51.922;7.730;2023-04-03T04:47:55;142466.25;;;-0.18;100.00
47530;BME280;33272;51.922;7.730;2023-04-03T04:50:22;142454.94;;;-0.23;100.00
47530;BME280;33272;51.922;7.730;2023-04-03T04:52:49;142439.88;;;-0.29;100.00
47530;BME280;33272;51.922;7.730;2023-04-03T04:55:16;142429.84;;;-0.33;100.00
47530;BME280;33272;51.922;7.730;2023-04-03T04:57:43;142419.81;;;-0.37;100.00
47530;BME280;33272;51.922;7.730;2023-04-03T05:00:14;142408.50;;;-0.42;100.00
47530;BME280;33272;51.922;7.730;2023-04-03T05:02:41;142408.50;;;-0.42;100.00
47530;BME280;33272;51.922;7.730;2023-04-03T05:05:08;142411.03;;;-0.41;100.00
47530;BME280;33272;51.922;7.730;2023-04-03T05:07:35;142412.28;;;-0.40;100.00
47530;BME280;33272;51.922;7.730;2023-04-03T05:10:03;142421.06;;;-0.37;100.00
47530;BME280;33272;51.922;7.730;2023-04-03T05:12:31;142431.09;;;-0.33;100.00
47530;BME280;33272;51.922;7.730;2023-04-03T05:14:58;142441.13;;;-0.29;100.00
47530;BME280;33272;51.922;7.730;2023-04-03T05:17:26;142449.94;;;-0.25;100.00
47530;BME280;33272;51.922;7.730;2023-04-03T05:19:53;142461.22;;;-0.20;100.00
47530;BME280;33272;51.922;7.730;2023-04-03T05:22:20;142472.50;;;-0.16;100.00
47530;BME280;33272;51.922;7.730;2023-04-03T05:24:48;142485.06;;;-0.11;100.00
47530;BME280;33272;51.922;7.730;2023-04-03T05:27:15;142513.97;;;0.01;100.00
47530;BME280;33272;51.922;7.730;2023-04-03T05:29:42;142557.88;;;0.19;100.00
47530;BME280;33272;51.922;7.730;2023-04-03T05:32:10;142599.34;;;0.36;100.00
47530;BME280;33272;51.922;7.730;2023-04-03T05:34:38;142638.28;;;0.52;100.00
47530;BME280;33272;51.922;7.730;2023-04-03T05:37:05;142676.00;;;0.67;100.00
47530;BME280;33272;51.922;7.730;2023-04-03T05:39:32;142706.16;;;0.79;100.00
47530;BME280;33272;51.922;7.730;2023-04-03T05:41:59;142728.75;;;0.88;100.00
47530;BME280;33272;51.922;7.730;2023-04-03T05:44:27;142753.88;;;0.99;100.00
47530;BME280;33272;51.922;7.730;2023-04-03T05:46:54;142791.59;;;1.14;100.00
47530;BME280;33272;51.922;7.730;2023-04-03T05:49:21;142830.56;;;1.30;100.00
47530;BME280;33272;51.922;7.730;2023-04-03T05:51:49;142887.13;;;1.53;100.00
47530;BME280;33272;51.922;7.730;2023-04-03T05:54:20;142955.03;;;1.80;100.00
47530;BME280;33272;51.922;7.730;2023-04-03T05:56:49;143007.88;;;2.02;100.00
47530;BME280;33272;51.922;7.730;2023-04-03T05:59:16;143072.03;;;2.28;100.00
47530;BME280;33272;51.922;7.730;2023-04-03T06:01:43;143124.88;;;2.49;100.00
47530;BME280;33272;51.922;7.730;2023-04-03T06:04:11;143145.00;;;2.58;100.00
47530;BME280;33272;51.922;7.730;2023-04-03T06:06:46;143168.91;;;2.67;100.00
47530;BME280;33272;51.922;7.730;2023-04-03T06:09:16;143182.75;;;2.73;100.00
47530;BME280;33272;51.922;7.730;2023-04-03T06:11:43;143189.06;;;2.75;100.00
47530;BME280;33272;51.922;7.730;2023-04-03T06:14:11;143180.25;;;2.72;100.00
47530;BME280;33272;51.922;7.730;2023-04-03T06:16:39;143165.16;;;2.66;100.00
47530;BME280;33272;51.922;7.730;2023-04-03T06:19:06;143118.59;;;2.47;100.00
47530;BME280;33272;51.922;7.730;2023-04-03T06:21:33;143075.78;;;2.29;100.00
47530;BME280;33272;51.922;7.730;2023-04-03T06:24:01;143064.47;;;2.25;100.00
47530;BME280;33272;51.922;7.730;2023-04-03T06:26:30;143045.56;;;2.17;100.00
47530;BME280;33272;51.922;7.730;2023-04-03T06:28:57;143041.81;;;2.16;100.00
47530;BME280;33272;51.922;7.730;2023-04-03T06:31:24;143030.47;;;2.11;100.00
47530;BME280;33272;51.922;7.730;2023-04-03T06:33:52;143025.47;;;2.09;100.00
47530;BME280;33272;51.922;7.730;2023-04-03T06:36:19;143021.69;;;2.07;100.00
47530;BME280;33272;51.922;7.730;2023-04-03T06:38:48;143027.97;;;2.10;100.00
47530;BME280;33272;51.922;7.730;2023-04-03T06:41:15;143039.31;;;2.15;100.00
47530;BME280;33272;51.922;7.730;2023-04-03T06:43:44;143046.88;;;2.18;100.00
47530;BME280;33272;51.922;7.730;2023-04-03T06:46:14;143060.69;;;2.23;100.00
47530;BME280;33272;51.922;7.730;2023-04-03T06:48:42;143074.53;;;2.29;100.00
47530;BME280;33272;51.922;7.730;2023-04-03T06:51:19;143097.19;;;2.38;100.00
47530;BME280;33272;51.922;7.730;2023-04-03T06:53:47;143108.53;;;2.43;100.00
47530;BME280;33272;51.922;7.730;2023-04-03T06:56:15;143119.84;;;2.47;100.00
47530;BME280;33272;51.922;7.730;2023-04-03T06:58:43;143132.44;;;2.52;100.00
47530;BME280;33272;51.922;7.730;2023-04-03T07:01:13;143148.78;;;2.59;100.00
47530;BME280;33272;51.922;7.730;2023-04-03T07:03:41;143161.34;;;2.64;100.00
47530;BME280;33272;51.922;7.730;2023-04-03T07:06:11;143172.72;;;2.69;100.00
47530;BME280;33272;51.922;7.730;2023-04-03T07:08:39;143195.38;;;2.78;100.00
47530;BME280;33272;51.922;7.730;2023-04-03T07:11:06;143209.19;;;2.84;100.00
47530;BME280;33272;51.922;7.730;2023-04-03T07:13:34;143238.16;;;2.95;100.00
47530;BME280;33272;51.922;7.730;2023-04-03T07:16:04;143268.38;;;3.08;100.00
47530;BME280;33272;51.922;7.730;2023-04-03T07:18:32;143289.78;;;3.16;100.00
47530;BME280;33272;51.922;7.730;2023-04-03T07:20:59;143311.19;;;3.25;100.00
47530;BME280;33272;51.922;7.730;2023-04-03T07:23:27;143328.81;;;3.32;100.00
47530;BME280;33272;51.922;7.730;2023-04-03T07:25:54;143350.25;;;3.41;100.00
47530;BME280;33272;51.922;7.730;2023-04-03T07:28:23;143364.06;;;3.46;100.00
47530;BME280;33272;51.922;7.730;2023-04-03T07:30:52;143377.94;;;3.52;99.92
47530;BME280;33272;51.922;7.730;2023-04-03T07:33:22;143391.78;;;3.58;98.83
47530;BME280;33272;51.922;7.730;2023-04-03T07:35:50;143403.09;;;3.62;97.59
47530;BME280;33272;51.922;7.730;2023-04-03T07:38:17;143416.97;;;3.68;97.79
47530;BME280;33272;51.922;7.730;2023-04-03T07:40:46;143444.72;;;3.79;97.40
47530;BME280;33272;51.922;7.730;2023-04-03T07:43:14;143456.03;;;3.84;96.82
47530;BME280;33272;51.922;7.730;2023-04-03T07:45:41;143474.97;;;3.91;95.74
47530;BME280;33272;51.922;7.730;2023-04-03T07:48:10;143488.78;;;3.97;94.93
47530;BME280;33272;51.922;7.730;2023-04-03T07:50:40;143520.34;;;4.10;95.41
47530;BME280;33272;51.922;7.730;2023-04-03T07:53:07;143544.28;;;4.20;95.10
47530;BME280;33272;51.922;7.730;2023-04-03T07:55:34;143574.50;;;4.32;95.13
47530;BME280;33272;51.922;7.730;2023-04-03T07:58:08;143601.00;;;4.43;94.18
47530;BME280;33272;51.922;7.730;2023-04-03T08:00:36;143614.88;;;4.48;92.56
47530;BME280;33272;51.922;7.730;2023-04-03T08:03:04;143622.44;;;4.51;92.10
47530;BME280;33272;51.922;7.730;2023-04-03T08:05:34;143633.75;;;4.56;91.86
47530;BME280;33272;51.922;7.730;2023-04-03T08:08:04;143655.19;;;4.64;91.58
47530;BME280;33272;51.922;7.730;2023-04-03T08:10:31;143667.78;;;4.70;90.82
47530;BME280;33272;51.922;7.730;2023-04-03T08:12:58;143696.81;;;4.81;90.67
47530;BME280;33272;51.922;7.730;2023-04-03T08:15:25;143705.63;;;4.85;88.84
47530;BME280;33272;51.922;7.730;2023-04-03T08:17:53;143717.00;;;4.90;88.18
47530;BME280;33272;51.922;7.730;2023-04-03T08:20:20;143734.66;;;4.97;86.41
47530;BME280;33272;51.922;7.730;2023-04-03T08:22:47;143737.16;;;4.98;84.76
47530;BME280;33272;51.922;7.730;2023-04-03T08:25:16;143746.03;;;5.01;82.84
47530;BME280;33272;51.922;7.730;2023-04-03T08:27:43;143769.97;;;5.11;84.72
47530;BME280;33272;51.922;7.730;2023-04-03T08:30:12;143801.53;;;5.24;84.14
47530;BME280;33272;51.922;7.730;2023-04-03T08:32:39;143839.38;;;5.39;83.33
47530;BME280;33272;51.922;7.730;2023-04-03T08:35:08;143867.13;;;5.50;82.00
47530;BME280;33272;51.922;7.730;2023-04-03T08:37:36;143891.09;;;5.60;80.99
47530;BME280;33272;51.922;7.730;2023-04-03T08:40:05;143896.16;;;5.62;78.87
47530;BME280;33272;51.922;7.730;2023-04-03T08:42:45;143906.22;;;5.66;77.55
47530;BME280;33272;51.922;7.730;2023-04-03T08:45:21;143908.75;;;5.67;76.54
47530;BME280;33272;51.922;7.730;2023-04-03T08:47:59;143922.63;;;5.73;75.29
47530;BME280;33272;51.922;7.730;2023-04-03T08:50:33;143926.44;;;5.74;70.42
47530;BME280;33272;51.922;7.730;2023-04-03T08:53:02;143927.69;;;5.75;72.56
47530;BME280;33272;51.922;7.730;2023-04-03T08:55:36;143954.19;;;5.86;74.14
47530;BME280;33272;51.922;7.730;2023-04-03T08:58:11;143965.56;;;5.90;69.45
47530;BME280;33272;51.922;7.730;2023-04-03T09:00:45;143992.13;;;6.01;73.27
47530;BME280;33272;51.922;7.730;2023-04-03T09:03:16;144027.47;;;6.15;73.21
47530;BME280;33272;51.922;7.730;2023-04-03T09:05:47;144055.22;;;6.26;72.55
47530;BME280;33272;51.922;7.730;2023-04-03T09:08:23;144059.03;;;6.28;69.82
47530;BME280;33272;51.922;7.730;2023-04-03T09:11:03;144059.03;;;6.28;68.02
47530;BME280;33272;51.922;7.730;2023-04-03T09:13:40;144076.72;;;6.35;70.07
47530;BME280;33272;51.922;7.730;2023-04-03T09:16:23;144083.03;;;6.38;69.39
47530;BME280;33272;51.922;7.730;2023-04-03T09:18:57;144103.22;;;6.46;69.08
47530;BME280;33272;51.922;7.730;2023-04-03T09:21:33;144113.34;;;6.50;67.90
47530;BME280;33272;51.922;7.730;2023-04-03T09:24:05;144112.09;;;6.49;68.50
47530;BME280;33272;51.922;7.730;2023-04-03T09:26:38;144133.53;;;6.58;68.48
47530;BME280;33272;51.922;7.730;2023-04-03T09:29:16;144131.03;;;6.57;68.09
47530;BME280;33272;51.922;7.730;2023-04-03T09:31:46;144133.53;;;6.58;67.97
47530;BME280;33272;51.922;7.730;2023-04-03T09:34:21;144165.09;;;6.71;68.79
47530;BME280;33272;51.922;7.730;2023-04-03T09:36:51;144190.41;;;6.81;67.45
47530;BME280;33272;51.922;7.730;2023-04-03T09:39:21;144216.91;;;6.92;67.18
47530;BME280;33272;51.922;7.730;2023-04-03T09:42:01;144198.00;;;6.84;60.43
47530;BME280;33272;51.922;7.730;2023-04-03T09:44:32;144208.09;;;6.88;66.02
47530;BME280;33272;51.922;7.730;2023-04-03T09:47:00;144218.19;;;6.92;65.71
47530;BME280;33272;51.922;7.730;2023-04-03T09:49:43;144214.41;;;6.91;64.40
47530;BME280;33272;51.922;7.730;2023-04-03T09:52:25;144238.41;;;7.01;65.30
47530;BME280;33272;51.922;7.730;2023-04-03T09:54:52;144264.94;;;7.11;65.79
47530;BME280;33272;51.922;7.730;2023-04-03T09:57:19;144282.59;;;7.18;65.98
47530;BME280;33272;51.922;7.730;2023-04-03T09:59:58;144280.09;;;7.17;59.94
47530;BME280;33272;51.922;7.730;2023-04-03T10:02:36;144285.16;;;7.19;59.02
47530;BME280;33272;51.922;7.730;2023-04-03T10:05:28;144273.78;;;7.15;57.50
47530;BME280;33272;51.922;7.730;2023-04-03T10:08:19;144270.00;;;7.13;58.52
47530;BME280;33272;51.922;7.730;2023-04-03T10:10:48;144305.34;;;7.28;61.35
47530;BME280;33272;51.922;7.730;2023-04-03T10:13:32;144326.84;;;7.36;61.70
47530;BME280;33272;51.922;7.730;2023-04-03T10:16:06;144343.28;;;7.43;61.48
47530;BME280;33272;51.922;7.730;2023-04-03T10:18:42;144366.03;;;7.52;62.58
47530;BME280;33272;51.922;7.730;2023-04-03T10:21:20;144397.66;;;7.65;60.02
47530;BME280;33272;51.922;7.730;2023-04-03T10:24:02;144397.66;;;7.65;61.20
47530;BME280;33272;51.922;7.730;2023-04-03T10:26:43;144419.16;;;7.74;61.45
47530;BME280;33272;51.922;7.730;2023-04-03T10:29:26;144388.81;;;7.61;54.90
47530;BME280;33272;51.922;7.730;2023-04-03T10:32:03;144400.22;;;7.66;59.26
47530;BME280;33272;51.922;7.730;2023-04-03T10:34:39;144406.50;;;7.69;59.94
47530;BME280;33272;51.922;7.730;2023-04-03T10:37:17;144391.31;;;7.62;59.13
47530;BME280;33272;51.922;7.730;2023-04-03T10:39:54;144406.50;;;7.69;57.80
47530;BME280;33272;51.922;7.730;2023-04-03T10:42:31;144392.63;;;7.63;58.79
47530;BME280;33272;51.922;7.730;2023-04-03T10:45:19;144392.63;;;7.63;56.80
47530;BME280;33272;51.922;7.730;2023-04-03T10:47:57;144397.66;;;7.65;58.31
47530;BME280;33272;51.922;7.730;2023-04-03T10:50:39;144403.97;;;7.68;59.53
47530;BME280;33272;51.922;7.730;2023-04-03T10:53:19;144402.72;;;7.67;58.37
47530;BME280;33272;51.922;7.730;2023-04-03T10:55:55;144402.72;;;7.67;58.81
47530;BME280;33272;51.922;7.730;2023-04-03T10:58:30;144420.41;;;7.74;58.68
47530;BME280;33272;51.922;7.730;2023-04-03T11:01:05;144425.47;;;7.76;59.46
47530;BME280;33272;51.922;7.730;2023-04-03T11:03:38;144447.00;;;7.85;58.68
47530;BME280;33272;51.922;7.730;2023-04-03T11:06:10;144454.53;;;7.88;58.37
47530;BME280;33272;51.922;7.730;2023-04-03T11:08:44;144469.72;;;7.94;59.49
47530;BME280;33272;51.922;7.730;2023-04-03T11:11:16;144500.06;;;8.06;59.40
47530;BME280;33272;51.922;7.730;2023-04-03T11:13:49;144520.31;;;8.15;59.45
47530;BME280;33272;51.922;7.730;2023-04-03T11:16:23;144508.91;;;8.10;58.68
47530;BME280;33272;51.922;7.730;2023-04-03T11:18:59;144474.78;;;7.96;59.29
47530;BME280;33272;51.922;7.730;2023-04-03T11:21:31;144503.88;;;8.08;59.91
47530;BME280;33272;51.922;7.730;2023-04-03T11:24:03;144502.63;;;8.07;57.67
47530;BME280;33272;51.922;7.730;2023-04-03T11:26:39;144516.50;;;8.13;58.68
47530;BME280;33272;51.922;7.730;2023-04-03T11:29:12;144536.75;;;8.21;59.25
47530;BME280;33272;51.922;7.730;2023-04-03T11:31:57;144574.72;;;8.36;58.11
47530;BME280;33272;51.922;7.730;2023-04-03T11:34:35;144581.09;;;8.39;56.51
47530;BME280;33272;51.922;7.730;2023-04-03T11:37:13;144586.13;;;8.41;55.89
47530;BME280;33272;51.922;7.730;2023-04-03T11:39:51;144607.63;;;8.50;57.47
47530;BME280;33272;51.922;7.730;2023-04-03T11:42:30;144632.94;;;8.60;57.48
47530;BME280;33272;51.922;7.730;2023-04-03T11:45:36;144625.34;;;8.57;54.48
47530;BME280;33272;51.922;7.730;2023-04-03T11:48:09;144644.34;;;8.65;58.58
47530;BME280;33272;51.922;7.730;2023-04-03T11:50:55;144664.56;;;8.73;59.18
47530;BME280;33272;51.922;7.730;2023-04-03T11:53:33;144692.44;;;8.84;57.58
47530;BME280;33272;51.922;7.730;2023-04-03T11:56:04;144705.09;;;8.89;58.79
47530;BME280;33272;51.922;7.730;2023-04-03T11:58:33;144667.13;;;8.74;58.09
47530;BME280;33272;51.922;7.730;2023-04-03T12:01:07;144597.53;;;8.46;57.00
47530;BME280;33272;51.922;7.730;2023-04-03T12:04:06;144559.53;;;8.30;56.10
47530;BME280;33272;51.922;7.730;2023-04-03T12:07:12;144551.94;;;8.27;56.73
47530;BME280;33272;51.922;7.730;2023-04-03T12:10:18;144550.69;;;8.27;57.29
47530;BME280;33272;51.922;7.730;2023-04-03T12:12:59;144555.72;;;8.29;57.77
47530;BME280;33272;51.922;7.730;2023-04-03T12:15:53;144593.72;;;8.44;57.60
47530;BME280;33272;51.922;7.730;2023-04-03T12:19:00;144586.13;;;8.41;54.90
47530;BME280;33272;51.922;7.730;2023-04-03T12:22:22;144606.38;;;8.49;56.40
47530;BME280;33272;51.922;7.730;2023-04-03T12:24:51;144649.38;;;8.67;59.05
47530;BME280;33272;51.922;7.730;2023-04-03T12:27:24;144687.34;;;8.82;57.80
47530;BME280;33272;51.922;7.730;2023-04-03T12:30:05;144724.06;;;8.97;56.28
47530;BME280;33272;51.922;7.730;2023-04-03T12:33:01;144698.78;;;8.87;52.87
47530;BME280;33272;51.922;7.730;2023-04-03T12:35:34;144703.78;;;8.89;57.59
47530;BME280;33272;51.922;7.730;2023-04-03T12:38:49;144668.38;;;8.74;54.21
47530;BME280;33272;51.922;7.730;2023-04-03T12:41:33;144673.47;;;8.76;54.36
47530;BME280;33272;51.922;7.730;2023-04-03T12:44:24;144644.34;;;8.65;56.01
47530;BME280;33272;51.922;7.730;2023-04-03T12:46:54;144683.56;;;8.80;57.58
47530;BME280;33272;51.922;7.730;2023-04-03T12:49:35;144691.16;;;8.84;53.78
47530;BME280;33272;51.922;7.730;2023-04-03T12:52:05;144745.59;;;9.05;57.05
47530;BME280;33272;51.922;7.730;2023-04-03T12:54:37;144763.31;;;9.13;56.17
47530;BME280;33272;51.922;7.730;2023-04-03T12:57:16;144801.28;;;9.28;55.66
47530;BME280;33272;51.922;7.730;2023-04-03T12:59:44;144843.06;;;9.45;56.73
47530;BME280;33272;51.922;7.730;2023-04-03T13:02:22;144862.06;;;9.52;55.32
47530;BME280;33272;51.922;7.730;2023-04-03T13:04:51;144888.66;;;9.63;57.12
47530;BME280;33272;51.922;7.730;2023-04-03T13:07:25;144888.66;;;9.63;55.67
47530;BME280;33272;51.922;7.730;2023-04-03T13:10:14;144901.34;;;9.68;56.03
47530;BME280;33272;51.922;7.730;2023-04-03T13:12:48;144931.72;;;9.81;56.23
47530;BME280;33272;51.922;7.730;2023-04-03T13:15:20;144951.97;;;9.89;55.21
47530;BME280;33272;51.922;7.730;2023-04-03T13:17:48;144960.84;;;9.92;57.04
47530;BME280;33272;51.922;7.730;2023-04-03T13:20:23;144935.50;;;9.82;54.92